Time;durP1;ratioP1;P1;durP2;ratioP2;P2;SDS_P1;SDS_P2;PMS_P1;PMS_P2;Temp;Humidity;BMP_temperature;BMP_pressure;BME280_temperature;BME280_humidity;BME280_pressure;Samples;Min_cycle;Max_cycle;Signal;HPM_P1;HPM_P2
2023/01/19 00:02:13;;;;;;;2.07;1.97;;;4.10;99.90;;;;;;5112712;28;20172;-65
2023/01/19 00:04:40;;;;;;;2.20;2.10;;;4.00;99.90;;;;;;5112591;28;20284;-63
2023/01/19 00:07:08;;;;;;;2.37;2.27;;;4.10;99.90;;;;;;5094346;28;20239;-66
2023/01/19 00:09:37;;;;;;;2.70;2.50;;;4.10;99.90;;;;;;5112630;28;20219;-65
2023/01/19 00:12:03;;;;;;;2.50;2.40;;;4.10;99.90;;;;;;5112603;28;20577;-65
2023/01/19 00:14:30;;;;;;;3.10;2.90;;;4.20;99.90;;;;;;5112602;28;20166;-66
2023/01/19 00:16:56;;;;;;;3.10;2.90;;;4.20;99.90;;;;;;5112605;28;20315;-65
2023/01/19 00:19:22;;;;;;;3.03;2.83;;;4.30;99.90;;;;;;5094501;28;20166;-65
2023/01/19 00:21:48;;;;;;;2.80;2.60;;;4.20;99.90;;;;;;5112415;28;20177;-62
2023/01/19 00:24:14;;;;;;;2.70;2.50;;;4.30;99.90;;;;;;5112450;28;20177;-63
2023/01/19 00:26:41;;;;;;;4.53;3.00;;;4.30;99.90;;;;;;5112485;28;20215;-63
2023/01/19 00:29:10;;;;;;;3.37;3.17;;;4.20;99.90;;;;;;5112450;28;20586;-63
2023/01/19 00:31:37;;;;;;;4.03;3.37;;;4.30;99.90;;;;;;5112361;28;20613;-64
2023/01/19 00:34:04;;;;;;;4.03;3.60;;;4.30;99.90;;;;;;5112560;28;20524;-65
2023/01/19 00:36:30;;;;;;;3.90;3.60;;;4.30;99.90;;;;;;5112374;28;20172;-63
2023/01/19 00:38:56;;;;;;;3.30;3.00;;;4.30;99.90;;;;;;5112354;28;20538;-66
2023/01/19 00:42:38;;;;;;;3.40;3.20;;;4.20;99.90;;;;;;5112348;28;20170;-65
2023/01/19 00:44:08;;;;;;;3.23;2.97;;;4.10;99.90;;;;;;5112428;28;20183;-68
2023/01/19 00:46:34;;;;;;;3.97;3.57;;;4.10;99.90;;;;;;5114871;28;20312;-69
2023/01/19 00:49:00;;;;;;;3.30;3.00;;;4.00;99.90;;;;;;5098724;28;20214;-66
2023/01/19 00:51:26;;;;;;;3.33;3.07;;;4.00;99.90;;;;;;5113967;28;20173;-64
2023/01/19 00:53:51;;;;;;;3.07;2.87;;;4.00;99.90;;;;;;5116081;28;20196;-67
2023/01/19 00:56:17;;;;;;;3.73;3.40;;;4.10;99.90;;;;;;5117591;28;20603;-67
2023/01/19 00:58:46;;;;;;;4.97;3.50;;;4.00;99.90;;;;;;5124370;28;20193;-67
2023/01/19 01:01:13;;;;;;;3.30;3.00;;;4.00;99.90;;;;;;5116031;28;20224;-63
2023/01/19 01:03:38;;;;;;;3.90;3.60;;;4.00;99.90;;;;;;5115709;28;20247;-65
2023/01/19 01:06:07;;;;;;;3.67;3.37;;;4.10;99.90;;;;;;5115692;28;20259;-64
2023/01/19 01:08:33;;;;;;;5.73;3.70;;;4.10;99.90;;;;;;5115625;28;20193;-66
2023/01/19 01:10:59;;;;;;;3.50;3.30;;;4.10;99.90;;;;;;5115507;28;20166;-63
2023/01/19 01:13:26;;;;;;;3.17;2.97;;;4.10;99.90;;;;;;5115457;28;20177;-62
2023/01/19 01:15:54;;;;;;;3.13;2.93;;;4.10;99.90;;;;;;5115499;28;20186;-66
2023/01/19 01:18:21;;;;;;;3.00;2.80;;;4.10;99.90;;;;;;5115578;28;20178;-65
2023/01/19 01:20:47;;;;;;;3.50;3.13;;;4.10;99.90;;;;;;5115491;28;20170;-64
2023/01/19 01:23:13;;;;;;;3.90;3.33;;;4.00;99.90;;;;;;5115369;28;20634;-62
2023/01/19 01:25:39;;;;;;;3.60;3.30;;;4.10;99.90;;;;;;5115220;28;20271;-65
2023/01/19 01:28:07;;;;;;;3.07;2.80;;;4.10;99.90;;;;;;5097163;28;20200;-64
2023/01/19 01:30:38;;;;;;;3.83;3.03;;;4.20;99.90;;;;;;5097386;28;20178;-64
2023/01/19 01:33:04;;;;;;;3.40;2.83;;;4.20;99.90;;;;;;5115192;28;20169;-64
2023/01/19 01:35:32;;;;;;;3.27;2.97;;;4.20;99.90;;;;;;5115244;28;20261;-65
2023/01/19 01:37:59;;;;;;;3.57;2.97;;;4.20;99.90;;;;;;5114960;28;20193;-63
2023/01/19 01:40:26;;;;;;;3.23;2.93;;;4.20;99.90;;;;;;5115027;28;20253;-65
2023/01/19 01:42:52;;;;;;;3.60;3.30;;;4.20;99.90;;;;;;5114903;28;20186;-63
2023/01/19 01:45:37;;;;;;;2.90;2.70;;;4.30;99.90;;;;;;5114762;28;20284;-63
2023/01/19 01:48:21;;;;;;;2.83;2.63;;;4.30;99.90;;;;;;5115055;28;20178;-65
2023/01/19 01:53:48;;;;;;;2.63;2.43;;;4.40;99.90;;;;;;5114839;28;20665;-63
2023/01/19 01:56:20;;;;;;;2.80;2.60;;;4.40;99.90;;;;;;5114718;28;20186;-64
2023/01/19 01:58:47;;;;;;;2.87;2.67;;;4.40;99.90;;;;;;5096444;28;20611;-64
2023/01/19 02:03:58;;;;;;;2.70;2.50;;;4.40;99.90;;;;;;5113925;28;20245;-66
2023/01/19 02:06:25;;;;;;;2.60;2.50;;;4.40;99.90;;;;;;5114337;28;20219;-64
2023/01/19 02:14:38;;;;;;;2.40;2.30;;;4.50;99.90;;;;;;5114623;28;20175;-63
2023/01/19 02:17:05;;;;;;;2.57;2.40;;;4.40;99.90;;;;;;5114328;28;20702;-65
2023/01/19 02:19:40;;;;;;;2.77;2.57;;;4.40;99.90;;;;;;5114159;28;20190;-64
2023/01/19 02:22:14;;;;;;;2.97;2.77;;;4.40;99.90;;;;;;5114556;28;20553;-64
2023/01/19 02:24:40;;;;;;;3.10;2.90;;;4.40;99.90;;;;;;5114123;28;20173;-68
2023/01/19 02:27:06;;;;;;;3.27;3.07;;;4.30;99.90;;;;;;5114170;28;20599;-68
2023/01/19 02:29:33;;;;;;;3.03;2.80;;;4.30;99.90;;;;;;5114109;28;20205;-67
2023/01/19 02:32:01;;;;;;;4.60;3.40;;;4.30;99.90;;;;;;5113966;28;20177;-67
2023/01/19 02:34:27;;;;;;;3.00;2.70;;;4.30;99.90;;;;;;5114006;28;20222;-68
2023/01/19 02:37:05;;;;;;;3.20;2.80;;;4.20;99.90;;;;;;5113862;28;20536;-65
2023/01/19 02:39:44;;;;;;;2.80;2.60;;;4.30;99.90;;;;;;5114474;28;20170;-66
2023/01/19 02:42:18;;;;;;;2.97;2.77;;;4.30;99.90;;;;;;5114058;28;20170;-66
2023/01/19 02:44:47;;;;;;;2.53;2.30;;;4.30;99.90;;;;;;5113539;28;20166;-65
2023/01/19 02:47:14;;;;;;;2.63;2.43;;;4.20;99.90;;;;;;5114054;28;20161;-67
2023/01/19 02:49:39;;;;;;;2.60;2.50;;;4.10;99.90;;;;;;5115879;28;20207;-66
2023/01/19 02:52:11;;;;;;;2.40;2.27;;;4.20;99.90;;;;;;5116133;28;20169;-67
2023/01/19 02:55:05;;;;;;;3.23;2.23;;;4.20;99.90;;;;;;5118663;28;20161;-64
2023/01/19 02:57:38;;;;;;;2.20;2.10;;;4.10;99.90;;;;;;5113979;28;20528;-67
2023/01/19 03:00:28;;;;;;;2.10;2.03;;;4.00;99.90;;;;;;5113528;28;20158;-64
2023/01/19 03:02:57;;;;;;;2.30;2.10;;;4.00;99.90;;;;;;5113450;28;20167;-66
2023/01/19 03:05:49;;;;;;;2.20;2.10;;;4.10;99.90;;;;;;5113290;28;20233;-65
2023/01/19 03:08:27;;;;;;;1.70;1.67;;;4.10;99.90;;;;;;5115602;28;20172;-66
2023/01/19 03:11:02;;;;;;;2.00;1.90;;;4.00;99.90;;;;;;5113473;28;20194;-65
2023/01/19 03:13:30;;;;;;;1.67;1.67;;;4.00;99.90;;;;;;5113087;28;20204;-66
2023/01/19 03:16:13;;;;;;;1.70;1.60;;;4.00;99.90;;;;;;5113264;28;20166;-63
2023/01/19 03:18:44;;;;;;;2.53;1.43;;;3.90;99.90;;;;;;5113245;28;20219;-62
2023/01/19 03:21:12;;;;;;;1.60;1.60;;;3.80;99.90;;;;;;5095469;28;20169;-62
2023/01/19 03:23:40;;;;;;;1.60;1.60;;;3.70;99.90;;;;;;5113274;28;20182;-63
2023/01/19 03:26:10;;;;;;;1.50;1.50;;;3.70;99.90;;;;;;5113047;28;20213;-63
2023/01/19 03:28:39;;;;;;;1.60;1.60;;;3.60;99.90;;;;;;5112961;28;20179;-63
2023/01/19 03:31:19;;;;;;;1.50;1.50;;;3.70;99.90;;;;;;5112983;28;20162;-63
2023/01/19 03:33:54;;;;;;;1.70;1.60;;;3.70;99.90;;;;;;5094814;28;20158;-63
2023/01/19 03:36:31;;;;;;;1.53;1.50;;;3.70;99.90;;;;;;5112985;28;20526;-63
2023/01/19 03:38:58;;;;;;;1.50;1.40;;;3.70;99.90;;;;;;5113145;28;20585;-62
2023/01/19 03:41:26;;;;;;;1.67;1.57;;;3.70;99.90;;;;;;5112748;28;20259;-62
2023/01/19 03:43:55;;;;;;;1.50;1.50;;;3.80;99.90;;;;;;5112742;28;20236;-63
2023/01/19 03:46:23;;;;;;;1.40;1.40;;;3.70;99.90;;;;;;5112549;28;20232;-62
2023/01/19 03:48:50;;;;;;;1.43;1.43;;;3.80;99.90;;;;;;5112894;28;20166;-64
2023/01/19 03:51:16;;;;;;;1.43;1.43;;;3.70;99.90;;;;;;5112727;28;20169;-63
2023/01/19 03:53:42;;;;;;;1.60;1.60;;;3.70;99.90;;;;;;5112826;28;20166;-61
2023/01/19 03:56:17;;;;;;;1.33;1.33;;;3.70;99.90;;;;;;5112759;28;20232;-63
2023/01/19 03:58:44;;;;;;;1.57;1.57;;;3.70;99.90;;;;;;5113086;28;20169;-62
2023/01/19 04:01:10;;;;;;;1.43;1.43;;;3.70;99.90;;;;;;5112653;28;20170;-63
2023/01/19 04:03:36;;;;;;;1.53;1.53;;;3.60;99.90;;;;;;5112571;28;20588;-64
2023/01/19 04:06:02;;;;;;;1.70;1.70;;;3.60;99.90;;;;;;5112609;28;20620;-62
2023/01/19 04:08:27;;;;;;;1.60;1.60;;;3.60;99.90;;;;;;5112561;28;20176;-62
2023/01/19 04:10:56;;;;;;;1.50;1.50;;;3.60;99.90;;;;;;5112647;28;20244;-67
2023/01/19 04:13:22;;;;;;;1.50;1.40;;;3.50;99.90;;;;;;5112474;28;20189;-68
2023/01/19 04:15:48;;;;;;;1.50;1.50;;;3.50;99.90;;;;;;5112619;28;20290;-67
2023/01/19 04:18:14;;;;;;;1.30;1.30;;;3.50;99.90;;;;;;5112560;28;20637;-68
2023/01/19 04:20:39;;;;;;;1.60;1.50;;;3.50;99.90;;;;;;5112496;28;20712;-65
2023/01/19 04:23:05;;;;;;;1.43;1.33;;;3.50;99.90;;;;;;5112570;28;20207;-66
2023/01/19 04:25:32;;;;;;;1.30;1.30;;;3.40;99.90;;;;;;5112439;28;20233;-68
2023/01/19 04:27:57;;;;;;;1.50;1.50;;;3.40;99.90;;;;;;5116521;28;20176;-69
2023/01/19 04:30:24;;;;;;;1.30;1.30;;;3.40;99.90;;;;;;5116700;28;20185;-67
2023/01/19 04:32:51;;;;;;;1.30;1.30;;;3.50;99.90;;;;;;5117185;28;20545;-67
2023/01/19 04:35:17;;;;;;;1.40;1.40;;;3.40;99.90;;;;;;5116332;28;20196;-68
2023/01/19 04:37:43;;;;;;;1.40;1.40;;;3.40;99.90;;;;;;5116239;28;20681;-67
2023/01/19 04:40:10;;;;;;;1.80;1.70;;;3.40;99.90;;;;;;5116190;28;20506;-64
2023/01/19 04:42:36;;;;;;;1.20;1.20;;;3.40;99.90;;;;;;5116224;28;20224;-66
2023/01/19 04:45:01;;;;;;;1.60;1.60;;;3.30;99.90;;;;;;5115696;28;20224;-65
2023/01/19 04:47:27;;;;;;;1.63;1.63;;;3.20;99.90;;;;;;5116210;28;20173;-65
2023/01/19 04:49:53;;;;;;;1.77;1.67;;;3.20;99.90;;;;;;5118671;28;20176;-65
2023/01/19 04:52:19;;;;;;;1.70;1.60;;;3.20;99.90;;;;;;5116117;28;20393;-66
2023/01/19 04:54:44;;;;;;;1.50;1.50;;;3.30;99.90;;;;;;5097662;28;20182;-66
2023/01/19 04:57:10;;;;;;;1.60;1.50;;;3.30;99.90;;;;;;5115771;28;20166;-66
2023/01/19 04:59:36;;;;;;;1.50;1.40;;;3.20;99.90;;;;;;5115851;28;20174;-66
2023/01/19 05:02:02;;;;;;;1.57;1.53;;;3.20;99.90;;;;;;5115754;28;20260;-66
2023/01/19 05:04:28;;;;;;;1.50;1.50;;;3.30;99.90;;;;;;5115657;28;20301;-66
2023/01/19 05:06:53;;;;;;;1.87;1.77;;;3.30;99.90;;;;;;5115654;28;20297;-65
2023/01/19 05:09:19;;;;;;;1.67;1.60;;;3.30;99.90;;;;;;5115614;28;20213;-67
2023/01/19 05:11:45;;;;;;;1.70;1.60;;;3.30;99.90;;;;;;5118317;28;20189;-65
2023/01/19 05:14:11;;;;;;;1.60;1.60;;;3.30;99.90;;;;;;5122891;28;20257;-66
2023/01/19 05:16:37;;;;;;;1.67;1.57;;;3.30;99.90;;;;;;5115526;28;20196;-65
2023/01/19 05:19:03;;;;;;;1.60;1.60;;;3.30;99.90;;;;;;5115408;28;20268;-65
2023/01/19 05:21:28;;;;;;;1.77;1.70;;;3.30;99.90;;;;;;5115362;28;20226;-65
2023/01/19 05:23:54;;;;;;;2.13;1.67;;;3.40;99.90;;;;;;5115391;28;20175;-66
2023/01/19 05:26:20;;;;;;;1.37;1.37;;;3.40;99.90;;;;;;5097047;28;20262;-65
2023/01/19 05:28:46;;;;;;;1.50;1.40;;;3.40;99.90;;;;;;5115251;28;20570;-62
2023/01/19 05:31:12;;;;;;;1.60;1.60;;;3.50;99.90;;;;;;5115300;28;20193;-62
2023/01/19 05:33:38;;;;;;;1.60;1.50;;;3.50;99.90;;;;;;5115121;28;20214;-63
2023/01/19 05:36:04;;;;;;;1.70;1.60;;;3.50;99.90;;;;;;5115100;28;20170;-67
2023/01/19 05:38:30;;;;;;;1.80;1.77;;;3.50;99.90;;;;;;5113782;28;20783;-65
2023/01/19 05:40:57;;;;;;;1.50;1.50;;;3.50;99.90;;;;;;5115041;28;20216;-66
2023/01/19 05:43:24;;;;;;;2.00;1.80;;;3.50;99.90;;;;;;5114920;28;20227;-64
2023/01/19 05:45:50;;;;;;;1.70;1.60;;;3.40;99.90;;;;;;5114507;28;20715;-64
2023/01/19 05:48:16;;;;;;;1.70;1.60;;;3.50;99.90;;;;;;5114964;28;20166;-64
2023/01/19 05:50:42;;;;;;;1.73;1.63;;;3.50;99.90;;;;;;5114842;28;20208;-63
2023/01/19 05:53:08;;;;;;;1.83;1.73;;;3.40;99.90;;;;;;5114554;28;20169;-63
2023/01/19 05:55:34;;;;;;;1.47;1.47;;;3.50;99.90;;;;;;5114874;28;20174;-62
2023/01/19 05:58:00;;;;;;;2.33;2.23;;;3.50;99.90;;;;;;5114897;28;20172;-63
2023/01/19 06:00:26;;;;;;;1.97;1.80;;;3.50;99.90;;;;;;5114964;28;20201;-67
2023/01/19 06:02:52;;;;;;;1.83;1.73;;;3.60;99.90;;;;;;5114515;28;20251;-65
2023/01/19 06:05:18;;;;;;;1.80;1.70;;;3.50;99.90;;;;;;5114448;28;20197;-69
2023/01/19 06:07:44;;;;;;;1.50;1.50;;;3.50;99.90;;;;;;5114744;28;20280;-64
2023/01/19 06:10:10;;;;;;;1.70;1.60;;;3.50;99.90;;;;;;5114484;28;20259;-66
2023/01/19 06:12:40;;;;;;;1.80;1.70;;;3.50;99.90;;;;;;5114271;28;20702;-68
2023/01/19 06:15:06;;;;;;;1.77;1.67;;;3.50;99.90;;;;;;5113948;28;20188;-63
2023/01/19 06:17:32;;;;;;;1.80;1.70;;;3.50;99.90;;;;;;5113642;28;20176;-64
2023/01/19 06:19:58;;;;;;;1.60;1.50;;;3.50;99.90;;;;;;5114435;28;20175;-66
2023/01/19 06:22:24;;;;;;;1.60;1.57;;;3.50;99.90;;;;;;5114199;28;20165;-65
2023/01/19 06:24:50;;;;;;;1.73;1.70;;;3.60;99.90;;;;;;5120630;28;20176;-65
2023/01/19 06:27:15;;;;;;;1.80;1.77;;;3.60;99.90;;;;;;5115926;28;20236;-66
2023/01/19 06:29:41;;;;;;;1.90;1.80;;;3.50;99.90;;;;;;5114198;28;20640;-66
2023/01/19 06:32:07;;;;;;;1.70;1.60;;;3.50;99.90;;;;;;5113665;28;20640;-64
2023/01/19 06:34:33;;;;;;;1.50;1.40;;;3.50;99.90;;;;;;5114178;28;20223;-66
2023/01/19 06:36:59;;;;;;;1.77;1.67;;;3.50;99.90;;;;;;5113933;28;20177;-62
2023/01/19 06:39:24;;;;;;;1.90;1.80;;;3.50;99.90;;;;;;5114021;28;20192;-65
2023/01/19 06:41:50;;;;;;;2.40;2.20;;;3.50;99.90;;;;;;5113461;28;20177;-63
2023/01/19 06:44:16;;;;;;;2.10;2.00;;;3.50;99.90;;;;;;5114122;28;20173;-64
2023/01/19 06:46:42;;;;;;;2.13;2.00;;;3.50;99.90;;;;;;5112131;28;20591;-66
2023/01/19 06:49:07;;;;;;;2.70;2.37;;;3.60;99.90;;;;;;5113212;28;20667;-63
2023/01/19 06:51:33;;;;;;;2.90;2.60;;;3.60;99.90;;;;;;5113345;28;20240;-64
2023/01/19 06:53:59;;;;;;;4.20;2.57;;;3.60;99.90;;;;;;5112296;28;20177;-63
2023/01/19 06:56:25;;;;;;;1.67;1.57;;;3.70;99.90;;;;;;5105664;28;20180;-62
2023/01/19 06:58:52;;;;;;;1.60;1.60;;;3.60;99.90;;;;;;5113488;28;20253;-62
2023/01/19 07:01:18;;;;;;;1.87;1.83;;;3.70;99.90;;;;;;5113298;28;20234;-67
2023/01/19 07:03:44;;;;;;;2.00;1.90;;;3.70;99.90;;;;;;5113428;28;20681;-67
2023/01/19 07:06:10;;;;;;;1.90;1.80;;;3.60;99.90;;;;;;5113109;28;20295;-67
2023/01/19 07:08:37;;;;;;;1.90;1.80;;;3.70;99.90;;;;;;5113347;28;20312;-66
2023/01/19 07:11:06;;;;;;;2.67;1.70;;;3.60;99.90;;;;;;5113070;28;20178;-67
2023/01/19 07:13:35;;;;;;;1.60;1.50;;;3.70;99.90;;;;;;5113408;28;20272;-63
2023/01/19 07:16:06;;;;;;;2.20;1.50;;;3.70;99.90;;;;;;5094801;28;20639;-63
2023/01/19 07:18:32;;;;;;;1.63;1.63;;;3.70;99.90;;;;;;5113180;28;20625;-63
2023/01/19 07:20:58;;;;;;;1.47;1.47;;;3.60;99.90;;;;;;5116959;28;20187;-63
2023/01/19 07:23:24;;;;;;;1.47;1.47;;;3.60;99.90;;;;;;5119042;28;20601;-63
2023/01/19 07:25:50;;;;;;;2.40;1.70;;;3.70;99.90;;;;;;5113124;28;20763;-64
2023/01/19 07:28:16;;;;;;;1.90;1.80;;;3.70;99.90;;;;;;5094811;28;20201;-62
2023/01/19 07:30:42;;;;;;;1.30;1.30;;;3.70;99.90;;;;;;5112852;28;20222;-65
2023/01/19 07:33:08;;;;;;;1.43;1.33;;;3.70;99.90;;;;;;5112779;28;20177;-62
2023/01/19 07:35:34;;;;;;;1.53;1.43;;;3.80;99.90;;;;;;5112974;28;20177;-62
2023/01/19 07:38:00;;;;;;;1.97;1.80;;;3.80;99.90;;;;;;5112931;28;20175;-62
2023/01/19 07:40:27;;;;;;;1.77;1.67;;;3.90;99.90;;;;;;5112718;28;20251;-62
2023/01/19 07:42:52;;;;;;;1.70;1.67;;;3.90;99.90;;;;;;5112677;28;20166;-61
2023/01/19 07:45:19;;;;;;;1.73;1.63;;;3.90;99.90;;;;;;5094432;28;20229;-64
2023/01/19 07:47:50;;;;;;;1.57;1.57;;;3.90;99.90;;;;;;5113030;28;20174;-65
2023/01/19 07:50:20;;;;;;;1.50;1.47;;;4.00;99.90;;;;;;5112518;28;20222;-67
2023/01/19 07:52:45;;;;;;;1.57;1.57;;;4.20;99.90;;;;;;5111882;28;20198;-65
2023/01/19 07:55:11;;;;;;;1.60;1.50;;;4.20;99.90;;;;;;5112768;28;20197;-66
2023/01/19 07:57:37;;;;;;;2.40;1.70;;;4.10;99.90;;;;;;5112801;28;20176;-68
2023/01/19 08:00:04;;;;;;;1.70;1.60;;;4.10;99.90;;;;;;5112481;28;20229;-64
2023/01/19 08:02:32;;;;;;;1.63;1.57;;;4.10;99.90;;;;;;5115931;28;20259;-63
2023/01/19 08:04:58;;;;;;;1.60;1.50;;;4.10;99.90;;;;;;5117052;28;20299;-65
2023/01/19 08:07:24;;;;;;;2.27;1.40;;;4.00;99.90;;;;;;5117035;28;20264;-66
2023/01/19 08:09:49;;;;;;;1.50;1.40;;;3.90;99.90;;;;;;5098431;28;20177;-64
2023/01/19 08:12:16;;;;;;;1.37;1.33;;;4.00;99.90;;;;;;5116339;28;20183;-67
2023/01/19 08:14:41;;;;;;;1.47;1.47;;;4.00;99.90;;;;;;5117124;28;20648;-65
2023/01/19 08:17:12;;;;;;;1.10;1.10;;;4.00;99.90;;;;;;5116981;28;20256;-65
2023/01/19 08:19:39;;;;;;;1.30;1.30;;;3.90;99.90;;;;;;5117506;28;20165;-65
2023/01/19 08:22:04;;;;;;;1.33;1.30;;;3.90;99.90;;;;;;5118439;28;20193;-64
2023/01/19 08:24:31;;;;;;;1.40;1.40;;;3.80;99.90;;;;;;5116450;28;20189;-64
2023/01/19 08:27:01;;;;;;;1.33;1.33;;;3.90;99.90;;;;;;5116719;28;20235;-65
2023/01/19 08:29:29;;;;;;;1.20;1.20;;;3.90;99.90;;;;;;5105220;28;20388;-65
2023/01/19 08:31:57;;;;;;;1.30;1.30;;;3.80;99.90;;;;;;5116062;28;20240;-63
2023/01/19 08:34:23;;;;;;;1.40;1.40;;;3.90;99.90;;;;;;5116499;28;20185;-63
2023/01/19 08:36:49;;;;;;;1.60;1.50;;;4.00;99.90;;;;;;5115615;28;20178;-63
2023/01/19 08:39:16;;;;;;;1.60;1.50;;;3.90;99.90;;;;;;5115736;28;20184;-64
2023/01/19 08:41:43;;;;;;;1.00;1.00;;;3.90;99.90;;;;;;5116489;28;20193;-63
2023/01/19 08:44:09;;;;;;;1.53;1.53;;;3.90;99.90;;;;;;5116079;28;20670;-64
2023/01/19 08:46:35;;;;;;;1.50;1.40;;;4.00;99.90;;;;;;5116189;28;20232;-64
2023/01/19 08:49:01;;;;;;;1.50;1.40;;;4.00;99.90;;;;;;5116607;28;20177;-63
2023/01/19 08:51:27;;;;;;;1.67;1.63;;;4.10;99.90;;;;;;5116676;28;20573;-64
2023/01/19 08:53:52;;;;;;;1.17;1.17;;;4.10;99.90;;;;;;5116562;28;20234;-64
2023/01/19 08:56:18;;;;;;;2.03;1.50;;;4.30;99.90;;;;;;5116062;28;20674;-66
2023/01/19 08:58:44;;;;;;;1.83;1.60;;;4.30;99.90;;;;;;5116120;28;20170;-64
2023/01/19 09:01:15;;;;;;;1.47;1.37;;;4.40;99.90;;;;;;5115914;28;20177;-64
2023/01/19 09:03:42;;;;;;;1.77;1.30;;;4.40;99.90;;;;;;5116350;28;20567;-66
2023/01/19 09:06:10;;;;;;;1.50;1.40;;;4.50;99.60;;;;;;5115655;28;20214;-66
2023/01/19 09:08:37;;;;;;;1.37;1.27;;;4.60;99.90;;;;;;5115818;28;20190;-63
2023/01/19 09:11:04;;;;;;;3.70;1.40;;;4.70;99.90;;;;;;5115839;28;20660;-65
2023/01/19 09:13:30;;;;;;;1.33;1.33;;;4.70;99.90;;;;;;5115310;28;20189;-64
2023/01/19 09:15:55;;;;;;;1.47;1.37;;;4.80;99.10;;;;;;5115772;28;20660;-65
2023/01/19 09:18:21;;;;;;;4.73;1.70;;;4.70;99.20;;;;;;5115607;28;20206;-63
2023/01/19 09:20:49;;;;;;;2.37;1.80;;;4.80;99.70;;;;;;5115503;28;20174;-64
2023/01/19 09:23:17;;;;;;;3.03;1.60;;;4.80;99.70;;;;;;5115482;28;20171;-65
2023/01/19 09:25:44;;;;;;;2.17;2.07;;;4.90;99.20;;;;;;5115348;28;20218;-67
2023/01/19 09:28:13;;;;;;;2.03;1.87;;;4.90;99.20;;;;;;5115653;28;20171;-66
2023/01/19 09:30:40;;;;;;;1.93;1.83;;;4.80;99.00;;;;;;5115338;28;20201;-66
2023/01/19 09:33:14;;;;;;;1.90;1.80;;;4.90;99.80;;;;;;5116244;28;20255;-62
2023/01/19 09:35:41;;;;;;;3.10;2.00;;;4.90;98.90;;;;;;5116828;28;20169;-70
2023/01/19 09:38:07;;;;;;;1.80;1.70;;;4.90;99.00;;;;;;5115302;28;20174;-64
2023/01/19 09:41:00;;;;;;;1.63;1.63;;;4.90;99.30;;;;;;5115305;28;20527;-63
2023/01/19 09:43:53;;;;;;;1.40;1.40;;;5.00;99.50;;;;;;5110983;28;20254;-64
2023/01/19 09:46:26;;;;;;;1.83;1.77;;;5.10;99.10;;;;;;5114843;28;20230;-66
2023/01/19 09:48:55;;;;;;;1.63;1.53;;;5.10;99.10;;;;;;5096727;28;20166;-63
2023/01/19 09:51:24;;;;;;;1.40;1.40;;;5.30;98.70;;;;;;5114951;28;20268;-64
2023/01/19 09:54:05;;;;;;;1.10;1.10;;;5.40;98.40;;;;;;5114933;28;20174;-64
2023/01/19 09:56:31;;;;;;;1.20;1.20;;;5.10;98.30;;;;;;5115022;28;20161;-65
2023/01/19 09:58:58;;;;;;;1.50;1.40;;;5.10;98.40;;;;;;5114810;28;20666;-65
2023/01/19 10:01:33;;;;;;;1.40;1.40;;;5.00;98.70;;;;;;5114933;28;20395;-63
2023/01/19 10:04:35;;;;;;;1.70;1.60;;;4.90;98.50;;;;;;5114777;28;20649;-66
2023/01/19 10:07:20;;;;;;;1.50;1.40;;;5.00;98.50;;;;;;5114642;28;20197;-63
2023/01/19 10:10:04;;;;;;;1.90;1.80;;;5.20;98.80;;;;;;5114776;28;20175;-63
2023/01/19 10:13:07;;;;;;;2.43;1.50;;;5.30;98.70;;;;;;5114694;28;20245;-63
2023/01/19 10:15:48;;;;;;;1.73;1.63;;;5.20;98.50;;;;;;5118901;28;20178;-63
2023/01/19 10:18:35;;;;;;;1.70;1.60;;;5.20;98.70;;;;;;5114758;28;20174;-63
2023/01/19 10:21:21;;;;;;;1.80;1.70;;;5.30;98.60;;;;;;5114783;28;20182;-63
2023/01/19 10:23:55;;;;;;;1.70;1.60;;;5.20;98.90;;;;;;5114013;28;20249;-63
2023/01/19 10:26:26;;;;;;;3.30;1.70;;;5.20;98.40;;;;;;5114273;28;20205;-62
2023/01/19 10:29:00;;;;;;;1.40;1.40;;;5.30;99.20;;;;;;5114533;28;20178;-65
2023/01/19 10:31:26;;;;;;;1.50;1.47;;;5.20;98.50;;;;;;5114237;28;20224;-64
2023/01/19 10:33:53;;;;;;;1.90;1.80;;;5.20;98.50;;;;;;5114074;28;20170;-66
2023/01/19 10:36:32;;;;;;;1.73;1.63;;;5.10;98.30;;;;;;5114188;28;20178;-63
2023/01/19 10:38:58;;;;;;;1.70;1.60;;;5.00;98.60;;;;;;5114202;28;20175;-62
2023/01/19 10:41:46;;;;;;;2.20;1.50;;;5.00;98.60;;;;;;5114917;28;20172;-65
2023/01/19 10:44:25;;;;;;;1.70;1.57;;;4.90;98.80;;;;;;5115844;28;20167;-64
2023/01/19 10:46:54;;;;;;;1.43;1.43;;;5.00;98.90;;;;;;5113765;28;20239;-64
2023/01/19 10:49:26;;;;;;;1.53;1.43;;;4.90;98.90;;;;;;5113878;28;20181;-62
2023/01/19 10:51:54;;;;;;;1.50;1.50;;;4.80;98.70;;;;;;5113776;28;20528;-63
2023/01/19 10:54:21;;;;;;;1.47;1.40;;;4.80;98.80;;;;;;5113805;28;20162;-64
2023/01/19 10:56:54;;;;;;;1.20;1.20;;;4.70;98.70;;;;;;5113714;28;20166;-65
2023/01/19 10:59:42;;;;;;;1.40;1.30;;;4.70;98.90;;;;;;5113630;28;20169;-65
2023/01/19 11:02:29;;;;;;;1.67;1.57;;;4.70;98.90;;;;;;5113791;28;20174;-63
2023/01/19 11:05:00;;;;;;;1.60;1.50;;;4.70;98.90;;;;;;5113583;28;20171;-64
2023/01/19 11:07:29;;;;;;;1.53;1.43;;;4.70;98.90;;;;;;5095278;28;20211;-64
2023/01/19 11:10:18;;;;;;;1.30;1.30;;;4.70;99.00;;;;;;5113498;28;20195;-64
2023/01/19 11:12:56;;;;;;;2.17;1.97;;;4.70;98.90;;;;;;5113358;28;20176;-63
2023/01/19 11:15:43;;;;;;;1.47;1.37;;;4.70;99.20;;;;;;5113432;28;20155;-64
2023/01/19 11:18:26;;;;;;;1.50;1.40;;;4.80;99.20;;;;;;5113693;28;20223;-62
2023/01/19 11:20:54;;;;;;;1.43;1.40;;;4.80;98.70;;;;;;5113369;28;20163;-65
2023/01/19 11:23:49;;;;;;;1.33;1.33;;;4.70;98.90;;;;;;5113114;28;20560;-64
2023/01/19 11:26:33;;;;;;;1.90;1.80;;;4.70;98.80;;;;;;5110992;28;20685;-65
2023/01/19 11:29:02;;;;;;;1.10;1.10;;;4.50;99.10;;;;;;5113546;28;20181;-64
2023/01/19 11:31:27;;;;;;;1.20;1.20;;;4.50;99.00;;;;;;5113102;28;20166;-65
2023/01/19 11:34:04;;;;;;;1.50;1.40;;;4.50;99.40;;;;;;5113139;28;20718;-63
2023/01/19 11:36:35;;;;;;;1.43;1.33;;;4.50;99.50;;;;;;5112257;28;20186;-66
2023/01/19 11:39:23;;;;;;;1.33;1.23;;;4.50;99.40;;;;;;5113084;28;20150;-65
2023/01/19 11:41:52;;;;;;;1.30;1.30;;;4.50;99.40;;;;;;5112764;28;20204;-65
2023/01/19 11:44:35;;;;;;;1.50;1.40;;;4.50;99.50;;;;;;5112929;28;20158;-63
2023/01/19 11:47:21;;;;;;;0.90;0.90;;;4.50;99.70;;;;;;5112889;28;20660;-61
2023/01/19 11:50:12;;;;;;;1.40;1.40;;;4.40;99.90;;;;;;5112977;28;20578;-63
2023/01/19 11:52:47;;;;;;;1.10;1.10;;;4.30;99.90;;;;;;5113162;28;20161;-64
2023/01/19 11:55:20;;;;;;;1.80;1.70;;;4.20;99.90;;;;;;5112769;28;20635;-67
2023/01/19 11:57:51;;;;;;;1.03;1.03;;;4.10;99.90;;;;;;5094924;28;20179;-64
2023/01/19 12:00:46;;;;;;;1.33;1.33;;;4.00;99.90;;;;;;5113027;28;20175;-65
2023/01/19 12:03:58;;;;;;;1.33;1.33;;;4.00;99.90;;;;;;5074289;28;20186;-64
2023/01/19 12:06:32;;;;;;;1.20;1.20;;;4.10;99.90;;;;;;5115042;28;20698;-66
2023/01/19 12:09:04;;;;;;;1.60;1.50;;;4.10;99.90;;;;;;5098832;28;20181;-66
2023/01/19 12:11:37;;;;;;;1.40;1.30;;;4.20;99.90;;;;;;5094584;28;20184;-64
2023/01/19 12:14:05;;;;;;;1.20;1.20;;;4.20;99.90;;;;;;5112856;28;20158;-65
2023/01/19 12:16:33;;;;;;;1.47;1.27;;;4.10;99.90;;;;;;5112846;28;20261;-66
2023/01/19 12:19:06;;;;;;;1.20;1.20;;;4.10;99.90;;;;;;5112955;28;20195;-65
2023/01/19 12:21:32;;;;;;;1.03;1.03;;;4.20;99.90;;;;;;5112767;28;20189;-65
2023/01/19 12:24:14;;;;;;;1.20;1.20;;;4.20;99.90;;;;;;5113007;28;20171;-65
2023/01/19 12:26:54;;;;;;;1.23;1.20;;;4.10;99.90;;;;;;5112533;28;20237;-63
2023/01/19 12:29:23;;;;;;;2.00;1.40;;;4.10;99.90;;;;;;5112700;28;20260;-62
2023/01/19 12:32:16;;;;;;;1.30;1.30;;;4.10;99.90;;;;;;5112528;28;20169;-63
2023/01/19 12:34:47;;;;;;;1.10;1.10;;;4.10;99.90;;;;;;5109072;28;20610;-62
2023/01/19 12:37:40;;;;;;;1.53;1.53;;;4.20;99.90;;;;;;5112817;28;20178;-64
2023/01/19 12:40:23;;;;;;;1.13;1.13;;;4.20;99.90;;;;;;5110551;28;20182;-64
2023/01/19 12:43:13;;;;;;;0.97;0.97;;;4.20;99.90;;;;;;5112643;28;20170;-63
2023/01/19 12:45:39;;;;;;;1.40;1.40;;;4.20;99.90;;;;;;5112240;28;20221;-63
2023/01/19 12:48:23;;;;;;;1.70;1.60;;;4.30;99.90;;;;;;5114839;28;20168;-64
2023/01/19 12:50:49;;;;;;;1.70;1.60;;;4.30;99.90;;;;;;5116252;28;20173;-65
2023/01/19 12:53:21;;;;;;;1.47;1.40;;;4.20;99.90;;;;;;5116078;28;20192;-66
2023/01/19 12:55:58;;;;;;;1.43;1.43;;;4.20;99.90;;;;;;5116276;28;20242;-66
2023/01/19 12:58:24;;;;;;;1.10;1.10;;;4.10;99.90;;;;;;5116087;28;20168;-66
2023/01/19 13:01:12;;;;;;;0.93;0.93;;;4.10;99.90;;;;;;5115922;28;20257;-63
2023/01/19 13:04:06;;;;;;;1.40;1.40;;;4.10;99.90;;;;;;5116064;28;20169;-64
2023/01/19 13:06:46;;;;;;;2.23;2.13;;;4.00;99.90;;;;;;5116138;28;20607;-65
2023/01/19 13:09:31;;;;;;;1.60;1.60;;;4.20;99.90;;;;;;5115841;28;20179;-63
2023/01/19 13:12:21;;;;;;;1.03;1.03;;;4.30;99.90;;;;;;5115707;28;20256;-64
2023/01/19 13:14:49;;;;;;;1.80;1.50;;;4.40;99.90;;;;;;5115958;28;20173;-65
2023/01/19 13:17:46;;;;;;;1.40;1.40;;;4.50;99.90;;;;;;5115545;28;20176;-62
2023/01/19 13:20:51;;;;;;;1.40;1.30;;;4.40;99.90;;;;;;5115199;28;20586;-65
2023/01/19 13:23:22;;;;;;;1.53;1.43;;;4.40;99.90;;;;;;5074428;28;20223;-65
2023/01/19 13:26:04;;;;;;;1.40;1.30;;;4.50;99.90;;;;;;5115706;28;20633;-63
2023/01/19 13:28:48;;;;;;;2.03;1.20;;;4.60;99.90;;;;;;5115423;28;20162;-65